createdAt,value
2022-12-19T00:00:35.485Z,13.43
2022-12-19T00:03:03.337Z,14.37
2022-12-19T00:05:31.115Z,13.23
2022-12-19T00:07:58.996Z,13.50
2022-12-19T00:10:30.224Z,13.37
2022-12-19T00:12:57.969Z,12.63
2022-12-19T00:15:25.717Z,13.33
2022-12-19T00:17:54.801Z,13.07
2022-12-19T00:20:22.550Z,12.90
2022-12-19T00:22:51.090Z,13.00
2022-12-19T00:25:26.129Z,14.07
2022-12-19T00:27:54.268Z,13.10
2022-12-19T00:30:22.036Z,12.40
2022-12-19T00:32:50.515Z,12.90
2022-12-19T00:35:19.643Z,14.30
2022-12-19T00:37:49.745Z,14.10
2022-12-19T00:40:18.157Z,13.20
2022-12-19T00:42:51.647Z,12.50
2022-12-19T00:45:21.255Z,13.47
2022-12-19T00:47:49.026Z,13.13
2022-12-19T00:50:16.939Z,13.40
2022-12-19T00:52:46.879Z,12.67
2022-12-19T00:55:18.834Z,13.13
2022-12-19T00:57:47.131Z,11.77
2022-12-19T01:00:16.538Z,14.13
2022-12-19T01:02:45.147Z,14.07
2022-12-19T01:05:13.011Z,12.20
2022-12-19T01:07:42.164Z,13.03
2022-12-19T01:10:11.583Z,15.33
2022-12-19T01:12:47.431Z,14.10
2022-12-19T01:15:17.024Z,12.17
2022-12-19T01:17:45.199Z,12.33
2022-12-19T01:20:15.107Z,13.97
2022-12-19T01:22:43.016Z,13.83
2022-12-19T01:25:12.412Z,14.63
2022-12-19T01:27:40.276Z,13.03
2022-12-19T01:30:09.220Z,13.37
2022-12-19T01:32:37.608Z,13.73
2022-12-19T01:35:06.086Z,13.67
2022-12-19T01:37:37.642Z,12.77
2022-12-19T01:40:06.328Z,13.63
2022-12-19T01:42:37.743Z,12.50
2022-12-19T01:45:21.103Z,12.63
2022-12-19T01:47:53.467Z,13.50
2022-12-19T01:50:25.984Z,12.77
2022-12-19T01:52:54.461Z,12.67
2022-12-19T01:55:22.684Z,12.70
2022-12-19T01:57:53.037Z,13.93
2022-12-19T02:00:20.918Z,14.00
2022-12-19T02:02:54.107Z,14.57
2022-12-19T02:05:22.316Z,13.90
2022-12-19T02:07:50.648Z,12.23
2022-12-19T02:10:18.464Z,14.17
2022-12-19T02:12:47.075Z,12.43
2022-12-19T02:15:16.979Z,13.40
2022-12-19T02:17:58.672Z,12.80
2022-12-19T02:21:06.803Z,11.53
2022-12-19T02:23:57.861Z,13.27
2022-12-19T02:26:47.654Z,11.43
2022-12-19T02:29:42.824Z,12.40
2022-12-19T02:32:19.567Z,10.83
2022-12-19T02:34:52.470Z,11.47
2022-12-19T02:37:22.331Z,10.73
2022-12-19T02:39:53.726Z,13.23
2022-12-19T02:42:26.913Z,12.47
2022-12-19T02:45:02.467Z,12.00
2022-12-19T02:47:33.384Z,12.03
2022-12-19T02:50:02.857Z,12.13
2022-12-19T02:52:50.027Z,11.33
2022-12-19T02:55:23.881Z,11.40
2022-12-19T02:58:10.170Z,11.57
2022-12-19T03:00:44.984Z,11.83
2022-12-19T03:03:21.331Z,11.60
2022-12-19T03:05:56.851Z,12.83
2022-12-19T03:08:26.462Z,11.73
2022-12-19T03:10:59.452Z,12.03
2022-12-19T03:13:30.282Z,11.50
2022-12-19T03:15:59.556Z,11.77
2022-12-19T03:18:29.019Z,10.27
2022-12-19T03:21:04.079Z,12.03
2022-12-19T03:23:32.173Z,10.47
2022-12-19T03:26:02.785Z,9.83
2022-12-19T03:28:36.266Z,10.73
2022-12-19T03:31:05.214Z,10.97
2022-12-19T03:33:35.523Z,10.93
2022-12-19T03:36:06.583Z,10.70
2022-12-19T03:38:36.241Z,10.47
2022-12-19T03:41:05.018Z,11.33
2022-12-19T03:43:32.473Z,9.80
2022-12-19T03:46:03.859Z,10.00
2022-12-19T03:48:36.214Z,11.07
2022-12-19T03:51:15.030Z,9.70
2022-12-19T03:53:49.283Z,10.20
2022-12-19T03:56:22.169Z,11.30
2022-12-19T03:58:53.732Z,10.33
2022-12-19T04:01:22.230Z,10.87
2022-12-19T04:03:51.683Z,9.67
2022-12-19T04:06:19.791Z,10.97
2022-12-19T04:08:48.008Z,10.10
2022-12-19T04:11:18.955Z,11.00
2022-12-19T04:13:50.596Z,10.77
2022-12-19T04:16:24.620Z,10.60
2022-12-19T04:18:57.630Z,11.10
2022-12-19T04:21:29.244Z,11.23
2022-12-19T04:24:00.405Z,11.37
2022-12-19T04:26:28.885Z,11.07
2022-12-19T04:29:00.873Z,11.67
2022-12-19T04:31:28.866Z,10.97
2022-12-19T04:33:58.041Z,11.73
2022-12-19T04:36:26.441Z,12.60
2022-12-19T04:38:54.177Z,13.07
2022-12-19T04:41:21.889Z,11.77
2022-12-19T04:43:49.753Z,11.83
2022-12-19T04:46:17.534Z,12.63
2022-12-19T04:48:45.265Z,13.20
2022-12-19T04:51:14.585Z,11.60
2022-12-19T04:53:42.252Z,12.47
2022-12-19T04:56:11.421Z,12.00
2022-12-19T04:58:39.208Z,13.43
2022-12-19T05:01:08.504Z,11.30
2022-12-19T05:03:37.138Z,13.83
2022-12-19T05:06:07.086Z,12.87
2022-12-19T05:08:36.972Z,13.93
2022-12-19T05:11:05.605Z,11.93
2022-12-19T05:13:33.540Z,12.70
2022-12-19T05:16:02.951Z,12.60
2022-12-19T05:18:31.382Z,12.07
2022-12-19T05:20:59.449Z,12.47
2022-12-19T05:23:27.217Z,11.57
2022-12-19T05:25:58.572Z,11.73
2022-12-19T05:28:26.453Z,11.83
2022-12-19T05:30:54.242Z,11.87
2022-12-19T05:33:22.044Z,12.80
2022-12-19T05:35:50.377Z,12.10
2022-12-19T05:38:18.079Z,11.37
2022-12-19T05:40:45.866Z,11.77
2022-12-19T05:43:14.960Z,11.17
2022-12-19T05:45:42.753Z,11.77
2022-12-19T05:48:10.453Z,11.50
2022-12-19T05:50:38.262Z,11.57
2022-12-19T05:53:10.414Z,11.47
2022-12-19T05:55:38.138Z,11.83
2022-12-19T05:58:05.907Z,12.83
2022-12-19T06:00:35.105Z,12.60
2022-12-19T06:03:03.047Z,11.73
2022-12-19T06:05:31.277Z,10.60
2022-12-19T06:07:58.996Z,10.77
2022-12-19T06:10:27.486Z,11.03
2022-12-19T06:12:55.263Z,11.53
2022-12-19T06:15:23.093Z,11.13
2022-12-19T06:17:55.433Z,10.57
2022-12-19T06:20:23.569Z,11.17
2022-12-19T06:22:51.406Z,9.93
2022-12-19T06:25:19.171Z,10.90
2022-12-19T06:27:46.879Z,9.90
2022-12-19T06:30:15.392Z,9.20
2022-12-19T06:32:43.127Z,9.53
2022-12-19T06:35:12.432Z,8.83
2022-12-19T06:37:40.143Z,9.67
2022-12-19T06:40:29.730Z,9.50
2022-12-19T06:42:56.481Z,8.53
2022-12-19T06:45:24.282Z,7.63
2022-12-19T06:47:52.004Z,8.10
2022-12-19T06:50:21.092Z,8.50
2022-12-19T06:52:49.001Z,9.07
2022-12-19T06:55:16.814Z,7.83
2022-12-19T06:57:46.403Z,8.37
2022-12-19T07:00:15.055Z,8.30
2022-12-19T07:02:44.847Z,8.50
2022-12-19T07:05:13.758Z,8.87
2022-12-19T07:07:42.888Z,8.20
2022-12-19T07:10:11.320Z,8.27
2022-12-19T07:12:39.149Z,8.33
2022-12-19T07:15:07.935Z,8.43
2022-12-19T07:17:38.956Z,8.43
2022-12-19T07:20:07.737Z,8.30
2022-12-19T07:22:36.496Z,8.13
2022-12-19T07:25:06.984Z,8.00
2022-12-19T07:27:36.213Z,7.93
2022-12-19T07:30:05.673Z,8.03
2022-12-19T07:32:33.407Z,7.17
2022-12-19T07:35:01.173Z,8.60
2022-12-19T07:37:29.041Z,8.37
2022-12-19T07:39:56.805Z,9.20
2022-12-19T07:42:30.764Z,8.03
2022-12-19T07:45:00.483Z,8.13
2022-12-19T07:47:28.519Z,8.60
2022-12-19T07:49:56.275Z,8.43
2022-12-19T07:52:24.009Z,9.17
2022-12-19T07:54:51.900Z,8.03
2022-12-19T07:57:19.697Z,8.73
2022-12-19T07:59:48.759Z,9.40
2022-12-19T08:02:16.609Z,8.93
2022-12-19T08:04:44.380Z,9.50
2022-12-19T08:07:12.760Z,8.60
2022-12-19T08:09:40.550Z,9.10
2022-12-19T08:12:08.550Z,9.37
2022-12-19T08:14:36.330Z,9.57
2022-12-19T08:17:21.854Z,9.73
2022-12-19T08:19:49.937Z,9.00
2022-12-19T08:22:17.707Z,9.57
2022-12-19T08:24:45.479Z,10.17
2022-12-19T08:27:13.204Z,10.40
2022-12-19T08:29:40.947Z,10.77
2022-12-19T08:32:11.582Z,11.40
2022-12-19T08:34:41.538Z,9.57
2022-12-19T08:37:09.476Z,9.97
2022-12-19T08:39:37.186Z,10.00
2022-12-19T08:42:05.040Z,10.67
2022-12-19T08:44:32.858Z,9.67
2022-12-19T08:47:00.620Z,8.90
2022-12-19T08:49:29.733Z,9.80
2022-12-19T08:51:57.555Z,9.87
2022-12-19T08:54:25.281Z,8.23
2022-12-19T08:56:53.001Z,9.40
2022-12-19T08:59:30.563Z,9.50
2022-12-19T09:02:00.333Z,9.47
2022-12-19T09:05:57.791Z,8.80
2022-12-19T09:07:18.059Z,8.03
2022-12-19T09:09:46.522Z,8.73
2022-12-19T09:12:15.040Z,8.93
2022-12-19T09:14:44.062Z,7.23
2022-12-19T09:17:11.920Z,8.53
2022-12-19T09:19:41.561Z,8.40
2022-12-19T09:22:15.966Z,8.03
2022-12-19T09:24:43.736Z,8.27
2022-12-19T09:27:11.479Z,9.60
2022-12-19T09:29:39.550Z,8.43
2022-12-19T09:32:07.372Z,7.60
2022-12-19T09:34:38.655Z,8.23
2022-12-19T09:37:11.653Z,7.67
2022-12-19T09:39:46.264Z,9.67
2022-12-19T09:42:41.409Z,6.33
2022-12-19T09:45:31.757Z,7.63
2022-12-19T09:48:01.768Z,8.77
2022-12-19T09:50:40.599Z,7.37
2022-12-19T09:53:17.851Z,7.63
2022-12-19T09:55:46.477Z,7.90
2022-12-19T09:58:20.687Z,8.27
2022-12-19T10:00:56.049Z,8.07
2022-12-19T10:03:30.557Z,8.20
2022-12-19T10:07:11.921Z,7.93
2022-12-19T10:09:52.011Z,7.63
2022-12-19T10:12:43.073Z,7.03
2022-12-19T10:14:58.433Z,7.17
2022-12-19T10:17:31.601Z,7.10
2022-12-19T10:20:16.559Z,8.40
2022-12-19T10:22:54.843Z,7.53
2022-12-19T10:25:30.303Z,7.30
2022-12-19T10:28:03.411Z,7.37
2022-12-19T10:30:34.462Z,8.70
2022-12-19T10:33:18.333Z,8.43
2022-12-19T10:35:54.927Z,8.20
2022-12-19T10:38:27.831Z,7.57
2022-12-19T10:41:11.580Z,7.33
2022-12-19T10:43:48.329Z,6.63
2022-12-19T10:46:19.809Z,7.03
2022-12-19T10:48:48.904Z,6.57
2022-12-19T10:51:23.515Z,6.57
2022-12-19T10:53:55.106Z,6.70
2022-12-19T10:56:30.326Z,7.00
2022-12-19T10:59:03.114Z,6.37
2022-12-19T11:01:34.375Z,5.67
2022-12-19T11:04:27.688Z,7.27
2022-12-19T11:07:07.597Z,7.37
2022-12-19T11:09:38.350Z,8.87
2022-12-19T11:15:22.516Z,7.27
2022-12-19T11:19:21.571Z,6.77
2022-12-19T11:26:22.600Z,7.20
2022-12-19T11:29:32.462Z,6.97
2022-12-19T11:29:44.289Z,7.30
2022-12-19T11:30:37.765Z,6.67
2022-12-19T11:32:50.441Z,7.13
2022-12-19T11:35:24.931Z,7.17
2022-12-19T11:37:56.152Z,7.80
2022-12-19T11:40:33.543Z,7.50
2022-12-19T11:43:42.518Z,6.57
2022-12-19T11:46:01.444Z,7.00
2022-12-19T11:48:37.170Z,7.87
2022-12-19T11:51:08.851Z,6.97
2022-12-19T11:53:45.294Z,7.37
2022-12-19T11:56:16.132Z,6.27
2022-12-19T11:58:49.744Z,6.70
2022-12-19T12:01:24.148Z,6.30
2022-12-19T12:04:06.179Z,6.23
2022-12-19T12:06:36.012Z,6.10
2022-12-19T12:12:10.317Z,6.50
2022-12-19T12:19:48.619Z,6.00
2022-12-19T12:27:50.083Z,5.90
2022-12-19T12:31:07.036Z,6.37
2022-12-19T12:31:09.282Z,5.43
2022-12-19T12:31:22.092Z,6.10
2022-12-19T12:31:46.188Z,6.97
2022-12-19T12:32:04.978Z,5.67
2022-12-19T12:35:45.387Z,6.20
2022-12-19T12:38:50.213Z,6.23
2022-12-19T12:41:47.000Z,6.17
2022-12-19T12:44:15.155Z,6.30
2022-12-19T12:46:48.044Z,6.13
2022-12-19T12:49:30.290Z,6.00
2022-12-19T12:52:00.577Z,6.27
2022-12-19T12:54:33.436Z,6.90
2022-12-19T12:57:02.277Z,5.97
2022-12-19T12:59:32.867Z,6.00
2022-12-19T13:02:02.263Z,5.50
2022-12-19T13:04:35.299Z,6.27
2022-12-19T13:07:15.085Z,6.13
2022-12-19T13:09:43.067Z,6.30
2022-12-19T13:12:39.533Z,6.07
2022-12-19T13:15:37.394Z,6.17
2022-12-19T13:18:33.279Z,6.87
2022-12-19T13:21:03.475Z,6.10
2022-12-19T13:23:56.324Z,5.73
2022-12-19T13:26:56.504Z,6.07
2022-12-19T13:29:30.637Z,5.47
2022-12-19T13:32:16.154Z,6.07
2022-12-19T13:34:59.688Z,6.30
2022-12-19T13:39:51.734Z,4.70
2022-12-19T13:40:34.173Z,6.30
2022-12-19T13:43:31.272Z,5.60
2022-12-19T13:46:00.934Z,5.90
2022-12-19T13:48:32.482Z,5.77
2022-12-19T13:51:01.726Z,5.30
2022-12-19T13:53:30.941Z,5.40
2022-12-19T13:56:02.924Z,5.07
2022-12-19T13:58:32.300Z,5.50
2022-12-19T14:01:04.047Z,4.97
2022-12-19T14:03:36.157Z,5.40
2022-12-19T14:06:18.769Z,5.60
2022-12-19T14:08:48.330Z,5.30
2022-12-19T14:13:40.416Z,5.67
2022-12-19T14:14:46.929Z,5.70
2022-12-19T14:17:16.155Z,5.33
2022-12-19T14:19:46.648Z,5.67
2022-12-19T14:22:22.736Z,5.20
2022-12-19T14:25:33.396Z,4.90
2022-12-19T14:28:20.207Z,5.33
2022-12-19T14:30:38.487Z,4.93
2022-12-19T14:33:44.838Z,5.10
2022-12-19T14:36:12.308Z,5.37
2022-12-19T14:39:24.815Z,5.23
2022-12-19T14:42:01.976Z,5.70
2022-12-19T14:52:08.778Z,4.70
2022-12-19T14:52:25.213Z,5.63
2022-12-19T14:54:16.868Z,5.17
2022-12-19T14:54:22.080Z,5.43
2022-12-19T14:58:57.515Z,5.97
2022-12-19T15:01:28.495Z,5.83
2022-12-19T15:04:51.026Z,5.77
2022-12-19T15:07:08.849Z,5.67
2022-12-19T15:10:59.328Z,5.57
2022-12-19T15:14:53.358Z,5.57
2022-12-19T15:15:42.483Z,5.90
2022-12-19T15:18:24.327Z,5.13
2022-12-19T15:20:53.021Z,6.27
2022-12-19T15:23:22.641Z,5.90
2022-12-19T15:26:07.991Z,5.67
2022-12-19T15:28:40.354Z,6.03
2022-12-19T15:31:14.879Z,5.67
2022-12-19T15:34:07.220Z,5.23
2022-12-19T15:36:31.796Z,5.57
2022-12-19T15:39:00.041Z,4.83
2022-12-19T15:41:28.209Z,5.20
2022-12-19T15:44:04.765Z,5.03
2022-12-19T15:46:33.692Z,5.70
2022-12-19T15:49:03.059Z,4.97
2022-12-19T15:51:30.828Z,5.10
2022-12-19T15:54:15.528Z,5.30
2022-12-19T15:56:48.649Z,4.40
2022-12-19T15:59:26.655Z,5.10
2022-12-19T16:01:57.298Z,5.03
2022-12-19T16:04:27.183Z,5.10
2022-12-19T16:06:55.144Z,5.60
2022-12-19T16:09:25.535Z,5.13
2022-12-19T16:11:54.354Z,5.47
2022-12-19T16:14:23.050Z,4.30
2022-12-19T16:16:54.100Z,4.30
2022-12-19T16:19:27.821Z,4.63
2022-12-19T16:21:56.469Z,4.40
2022-12-19T16:24:24.878Z,5.67
2022-12-19T16:26:54.713Z,4.43
2022-12-19T16:29:24.240Z,4.50
2022-12-19T16:31:52.834Z,4.67
2022-12-19T16:34:24.175Z,4.37
2022-12-19T16:36:54.206Z,4.43
2022-12-19T16:39:22.010Z,4.30
2022-12-19T16:41:49.742Z,4.30
2022-12-19T16:44:19.615Z,4.40
2022-12-19T16:46:51.092Z,4.40
2022-12-19T16:49:22.825Z,4.30
2022-12-19T16:51:50.666Z,3.80
2022-12-19T16:54:19.986Z,4.57
2022-12-19T16:56:49.182Z,4.03
2022-12-19T16:59:19.106Z,3.97
2022-12-19T17:01:48.100Z,3.97
2022-12-19T17:04:17.362Z,4.03
2022-12-19T17:06:45.214Z,3.80
2022-12-19T17:09:15.628Z,3.73
2022-12-19T17:11:48.376Z,3.80
2022-12-19T17:14:18.470Z,3.67
2022-12-19T17:16:46.576Z,2.97
2022-12-19T17:19:21.503Z,3.33
2022-12-19T17:21:49.627Z,3.10
2022-12-19T17:24:17.775Z,3.23
2022-12-19T17:26:47.581Z,3.27
2022-12-19T17:29:15.861Z,3.23
2022-12-19T17:31:43.747Z,3.07
2022-12-19T17:34:17.385Z,2.90
2022-12-19T17:36:45.757Z,3.10
2022-12-19T17:39:21.433Z,2.87
2022-12-19T17:41:51.373Z,2.80
2022-12-19T17:44:19.385Z,3.10
2022-12-19T17:46:48.136Z,2.90
2022-12-19T17:49:17.976Z,2.53
2022-12-19T17:51:50.207Z,3.40
2022-12-19T17:54:18.000Z,3.07
2022-12-19T17:56:45.938Z,2.80
2022-12-19T17:59:15.089Z,3.10
2022-12-19T18:01:43.882Z,3.13
2022-12-19T18:04:14.867Z,2.80
2022-12-19T18:06:43.011Z,2.93
2022-12-19T18:09:19.074Z,2.90
2022-12-19T18:11:47.119Z,3.00
2022-12-19T18:14:16.701Z,2.43
2022-12-19T18:16:45.172Z,2.53
2022-12-19T18:19:17.384Z,2.87
2022-12-19T18:21:45.185Z,2.47
2022-12-19T18:24:14.809Z,2.93
2022-12-19T18:26:42.700Z,2.47
2022-12-19T18:29:10.493Z,3.72
2022-12-19T18:31:46.272Z,3.00
2022-12-19T18:34:19.578Z,2.90
2022-12-19T18:36:47.512Z,2.33
2022-12-19T18:39:23.799Z,2.63
2022-12-19T18:41:52.559Z,2.40
2022-12-19T18:44:20.780Z,2.60
2022-12-19T18:46:51.629Z,2.97
2022-12-19T18:49:19.456Z,2.97
2022-12-19T18:51:47.559Z,2.53
2022-12-19T18:54:17.092Z,2.93
2022-12-19T18:56:45.501Z,3.00
2022-12-19T18:59:13.990Z,2.87
2022-12-19T19:01:44.967Z,2.72
2022-12-19T19:04:17.600Z,2.33
2022-12-19T19:06:50.988Z,3.10
2022-12-19T19:09:21.643Z,2.80
2022-12-19T19:12:07.653Z,2.67
2022-12-19T19:14:35.620Z,3.03
2022-12-19T19:17:04.667Z,3.33
2022-12-19T19:19:33.858Z,2.80
2022-12-19T19:22:01.662Z,2.63
2022-12-19T19:24:29.468Z,2.40
2022-12-19T19:26:57.202Z,2.77
2022-12-19T19:29:24.977Z,3.10
2022-12-19T19:31:52.908Z,2.77
2022-12-19T19:34:24.341Z,3.13
2022-12-19T19:36:55.816Z,2.67
2022-12-19T19:39:24.009Z,2.87
2022-12-19T19:41:51.769Z,3.05
2022-12-19T19:44:19.525Z,2.80
2022-12-19T19:46:47.374Z,2.72
2022-12-19T19:49:15.457Z,2.80
2022-12-19T19:51:43.369Z,2.30
2022-12-19T19:54:12.644Z,2.37
2022-12-19T19:56:40.423Z,2.60
2022-12-19T19:59:08.346Z,2.58
2022-12-19T20:01:36.211Z,2.83
2022-12-19T20:04:04.340Z,2.33
2022-12-19T20:06:32.178Z,2.63
2022-12-19T20:09:00.150Z,2.55
2022-12-19T20:11:29.353Z,2.55
2022-12-19T20:13:57.234Z,2.47
2022-12-19T20:16:25.161Z,2.50
2022-12-19T20:18:53.764Z,2.40
2022-12-19T20:21:23.877Z,2.17
2022-12-19T20:23:51.955Z,2.42
2022-12-19T20:26:20.155Z,2.40
2022-12-19T20:28:51.637Z,2.20
2022-12-19T20:31:20.057Z,2.17
2022-12-19T20:33:49.067Z,2.65
2022-12-19T20:36:17.921Z,2.28
2022-12-19T20:38:46.221Z,2.72
2022-12-19T20:41:14.216Z,2.08
2022-12-19T20:43:42.089Z,2.22
2022-12-19T20:46:13.083Z,2.33
2022-12-19T20:48:41.202Z,1.95
2022-12-19T20:51:09.877Z,2.50
2022-12-19T20:53:38.645Z,2.40
2022-12-19T20:56:07.784Z,2.20
2022-12-19T20:58:37.397Z,2.40
2022-12-19T21:01:07.225Z,2.75
2022-12-19T21:03:37.776Z,2.67
2022-12-19T21:06:06.442Z,2.83
2022-12-19T21:08:35.058Z,2.65
2022-12-19T21:11:03.828Z,2.90
2022-12-19T21:13:31.770Z,2.20
2022-12-19T21:16:02.763Z,2.73
2022-12-19T21:18:31.094Z,2.60
2022-12-19T21:21:01.180Z,3.00
2022-12-19T21:23:29.605Z,2.70
2022-12-19T21:25:58.563Z,2.80
2022-12-19T21:28:26.369Z,2.67
2022-12-19T21:30:59.769Z,3.17
2022-12-19T21:33:27.817Z,3.00
2022-12-19T21:35:55.646Z,2.72
2022-12-19T21:38:25.418Z,2.23
2022-12-19T21:40:53.168Z,2.33
2022-12-19T21:43:21.028Z,2.33
2022-12-19T21:45:48.835Z,2.03
2022-12-19T21:48:16.637Z,2.73
2022-12-19T21:50:44.388Z,2.50
2022-12-19T21:53:12.145Z,3.10
2022-12-19T21:55:41.270Z,2.30
2022-12-19T21:58:09.037Z,3.05
2022-12-19T22:00:36.833Z,3.13
2022-12-19T22:03:20.099Z,2.72
2022-12-19T22:05:48.048Z,2.70
2022-12-19T22:08:15.834Z,2.13
2022-12-19T22:10:45.007Z,2.60
2022-12-19T22:13:12.888Z,2.85
2022-12-19T22:15:40.600Z,2.50
2022-12-19T22:18:08.603Z,2.10
2022-12-19T22:20:36.349Z,2.25
2022-12-19T22:23:09.734Z,2.50
2022-12-19T22:25:41.128Z,2.80
2022-12-19T22:28:10.488Z,3.03
2022-12-19T22:30:38.268Z,2.25
2022-12-19T22:33:06.075Z,2.38
2022-12-19T22:35:35.400Z,2.80
2022-12-19T22:38:03.157Z,2.88
2022-12-19T22:40:33.057Z,2.25
2022-12-19T22:43:00.847Z,2.20
2022-12-19T22:45:32.190Z,2.20
2022-12-19T22:47:59.958Z,2.40
2022-12-19T22:50:27.831Z,2.42
2022-12-19T22:52:55.674Z,2.08
2022-12-19T22:55:23.426Z,2.13
2022-12-19T22:57:51.190Z,2.65
2022-12-19T23:00:19.387Z,2.38
2022-12-19T23:02:48.749Z,2.22
2022-12-19T23:05:16.723Z,2.10
2022-12-19T23:07:45.338Z,1.73
2022-12-19T23:10:13.381Z,2.35
2022-12-19T23:12:41.079Z,2.08
2022-12-19T23:15:09.397Z,2.13
2022-12-19T23:17:37.101Z,2.13
2022-12-19T23:20:08.635Z,1.95
2022-12-19T23:22:36.405Z,2.00
2022-12-19T23:25:04.555Z,2.38
2022-12-19T23:27:32.501Z,1.80
2022-12-19T23:30:00.251Z,2.20
2022-12-19T23:32:28.156Z,1.75
2022-12-19T23:34:55.921Z,1.50
2022-12-19T23:37:25.031Z,1.35
2022-12-19T23:39:52.783Z,1.77
2022-12-19T23:42:20.519Z,1.40
2022-12-19T23:44:48.345Z,1.40
2022-12-19T23:47:16.103Z,1.90
2022-12-19T23:49:43.866Z,1.50
2022-12-19T23:52:11.672Z,2.00
2022-12-19T23:54:40.892Z,1.63
2022-12-19T23:57:08.841Z,1.80
2022-12-19T23:59:37.069Z,1.73
